首页
METAR-TAF:

METAR-TAF

机场 :

Tomahawk Regional Airport

Tomahawk, 威斯康辛州, 美国

纬度: 45-28-08N, 经度: 089-48-20W, 海拔: 453米

当前天气观测

该预报发布于14分钟前的20:55 UTC
风速5节,风向东北
温度 5°C
湿度 38%
气压 1013 hPa
能見度: 16.1公里
天空无云

METAR: KTKV 242055Z AUTO 05005KT 10SM CLR 05/M08 A2991 RMK AO2 T00511076 PWINO

时间: 15:09 (21:09 UTC)


TAF: 丢失

超过4000个机场的气象观测和天气预报(METAR&TAF报告)。

可查询的气象台以黄色和红色小点在地图上表示。

将鼠标移到小点上方,可查看气象台名称。

然后点击查看天气观测和预报。

如需切换地图:点击带黑十字的绿色按钮放大地图;点击带横线的绿色按钮缩小地图;或者点击绿色箭头查看邻近地区的地图。


METAR-TAF: